createdAt,value
2023-03-31T00:02:13.310Z,11.90
2023-03-31T00:05:00.068Z,12.00
2023-03-31T00:07:48.386Z,12.00
2023-03-31T00:10:36.009Z,12.00
2023-03-31T00:13:22.395Z,12.10
2023-03-31T00:16:10.890Z,12.00
2023-03-31T00:18:59.086Z,12.10
2023-03-31T00:21:46.452Z,12.10
2023-03-31T00:24:33.932Z,12.00
2023-03-31T00:27:20.417Z,11.90
2023-03-31T00:30:08.623Z,12.00
2023-03-31T00:32:55.658Z,11.90
2023-03-31T00:35:43.530Z,11.70
2023-03-31T00:38:31.057Z,11.60
2023-03-31T00:41:17.524Z,11.60
2023-03-31T00:44:13.368Z,11.60
2023-03-31T00:47:04.438Z,11.70
2023-03-31T00:49:56.930Z,11.90
2023-03-31T00:52:46.430Z,12.00
2023-03-31T00:55:36.512Z,12.00
2023-03-31T00:58:28.256Z,12.10
2023-03-31T01:01:17.577Z,12.20
2023-03-31T01:04:04.993Z,12.30
2023-03-31T01:07:00.737Z,12.40
2023-03-31T01:09:49.645Z,12.50
2023-03-31T01:12:39.123Z,12.60
2023-03-31T01:15:25.786Z,12.60
2023-03-31T01:18:13.937Z,12.60
2023-03-31T01:21:42.940Z,12.50
2023-03-31T01:25:08.490Z,12.40
2023-03-31T01:28:05.953Z,12.40
2023-03-31T01:31:23.504Z,12.40
2023-03-31T01:34:41.362Z,12.40
2023-03-31T01:37:54.047Z,12.30
2023-03-31T01:40:55.627Z,12.40
2023-03-31T01:43:47.428Z,12.30
2023-03-31T01:46:37.293Z,12.30
2023-03-31T01:49:30.875Z,12.30
2023-03-31T01:52:23.212Z,12.30
2023-03-31T01:55:17.056Z,12.30
2023-03-31T01:58:12.410Z,12.30
2023-03-31T02:01:04.018Z,12.30
2023-03-31T02:03:55.544Z,12.30
2023-03-31T02:06:46.519Z,12.20
2023-03-31T02:09:36.236Z,12.20
2023-03-31T02:12:26.518Z,12.20
2023-03-31T02:15:18.687Z,12.10
2023-03-31T02:18:10.917Z,12.00
2023-03-31T02:21:00.795Z,12.10
2023-03-31T02:23:50.349Z,12.00
2023-03-31T02:26:41.614Z,12.10
2023-03-31T02:29:28.420Z,12.10
2023-03-31T02:32:22.976Z,12.00
2023-03-31T02:35:13.420Z,12.00
2023-03-31T02:37:59.926Z,12.00
2023-03-31T02:40:46.903Z,12.00
2023-03-31T02:43:33.602Z,11.90
2023-03-31T02:46:20.206Z,11.90
2023-03-31T02:49:11.737Z,11.80
2023-03-31T02:52:17.004Z,11.70
2023-03-31T02:55:19.612Z,11.60
2023-03-31T02:58:35.359Z,11.60
2023-03-31T03:01:41.991Z,11.60
2023-03-31T03:04:51.480Z,11.60
2023-03-31T03:07:46.500Z,11.50
2023-03-31T03:10:42.488Z,11.50
2023-03-31T03:13:34.961Z,11.40
2023-03-31T03:16:27.477Z,11.40
2023-03-31T03:19:21.687Z,11.40
2023-03-31T03:22:10.058Z,11.40
2023-03-31T03:24:56.730Z,11.40
2023-03-31T03:27:43.189Z,11.20
2023-03-31T03:30:29.583Z,11.20
2023-03-31T03:33:17.285Z,11.10
2023-03-31T03:36:04.758Z,11.00
2023-03-31T03:38:52.903Z,10.90
2023-03-31T03:41:40.060Z,10.90
2023-03-31T03:44:26.641Z,10.90
2023-03-31T03:47:12.907Z,10.80
2023-03-31T03:49:59.369Z,10.60
2023-03-31T03:52:46.135Z,10.60
2023-03-31T03:55:34.086Z,10.60
2023-03-31T03:58:21.037Z,10.60
2023-03-31T04:01:07.960Z,10.70
2023-03-31T04:03:54.857Z,10.70
2023-03-31T04:06:41.245Z,10.80
2023-03-31T04:09:28.359Z,10.90
2023-03-31T04:12:15.984Z,11.00
2023-03-31T04:15:02.851Z,11.00
2023-03-31T04:17:50.764Z,11.10
2023-03-31T04:20:37.894Z,11.00
2023-03-31T04:23:26.551Z,11.20
2023-03-31T04:26:13.983Z,11.20
2023-03-31T04:29:02.414Z,11.20
2023-03-31T04:31:50.665Z,11.20
2023-03-31T04:34:37.408Z,11.30
2023-03-31T04:37:28.249Z,11.20
2023-03-31T04:40:16.370Z,11.20
2023-03-31T04:43:02.929Z,11.20
2023-03-31T04:45:50.735Z,11.20
2023-03-31T04:48:37.863Z,11.10
2023-03-31T04:51:24.442Z,11.10
2023-03-31T04:54:12.678Z,11.10
2023-03-31T04:56:59.182Z,11.10
2023-03-31T04:59:46.689Z,11.10
2023-03-31T05:02:34.557Z,11.10
2023-03-31T05:05:21.498Z,11.10
2023-03-31T05:08:08.610Z,11.20
2023-03-31T05:10:55.159Z,11.20
2023-03-31T05:13:41.578Z,11.20
2023-03-31T05:16:27.980Z,11.20
2023-03-31T05:19:16.301Z,11.10
2023-03-31T05:22:02.946Z,10.90
2023-03-31T05:24:49.264Z,10.90
2023-03-31T05:27:36.418Z,10.80
2023-03-31T05:30:22.829Z,10.80
2023-03-31T05:33:09.335Z,10.70
2023-03-31T05:35:57.706Z,10.70
2023-03-31T05:38:44.837Z,10.60
2023-03-31T05:41:31.215Z,10.50
2023-03-31T05:44:17.621Z,10.40
2023-03-31T05:47:04.034Z,10.40
2023-03-31T05:49:50.954Z,10.40
2023-03-31T05:52:39.086Z,10.40
2023-03-31T05:55:26.131Z,10.40
2023-03-31T05:58:12.704Z,10.50
2023-03-31T06:01:06.076Z,10.50
2023-03-31T06:03:53.084Z,10.60
2023-03-31T06:06:39.984Z,10.60
2023-03-31T06:09:28.498Z,10.60
2023-03-31T06:12:15.945Z,10.60
2023-03-31T06:15:02.845Z,10.70
2023-03-31T06:17:49.730Z,10.70
2023-03-31T06:20:36.155Z,10.80
2023-03-31T06:23:23.152Z,10.80
2023-03-31T06:26:16.802Z,10.80
2023-03-31T06:29:03.618Z,10.80
2023-03-31T06:31:50.516Z,10.90
2023-03-31T06:34:37.405Z,10.90
2023-03-31T06:37:24.357Z,11.00
2023-03-31T06:40:12.251Z,11.00
2023-03-31T06:43:00.157Z,11.10
2023-03-31T06:45:48.253Z,11.10
2023-03-31T06:48:35.469Z,11.00
2023-03-31T06:51:22.481Z,11.10
2023-03-31T06:54:09.052Z,11.10
2023-03-31T06:56:55.584Z,11.10
2023-03-31T06:59:43.840Z,11.10
2023-03-31T07:02:30.907Z,11.10
2023-03-31T07:05:18.563Z,11.10
2023-03-31T07:08:06.117Z,11.20
2023-03-31T07:10:57.670Z,11.30
2023-03-31T07:13:44.258Z,11.40
2023-03-31T07:16:32.741Z,11.90
2023-03-31T07:19:20.211Z,12.20
2023-03-31T07:22:06.876Z,12.30
2023-03-31T07:24:53.170Z,12.30
2023-03-31T07:27:39.717Z,12.30
2023-03-31T07:30:26.351Z,12.80
2023-03-31T07:33:14.273Z,13.90
2023-03-31T07:36:12.850Z,14.40
2023-03-31T07:39:00.298Z,14.40
2023-03-31T07:41:46.817Z,14.20
2023-03-31T07:44:34.556Z,13.90
2023-03-31T07:47:21.447Z,13.60
2023-03-31T07:50:11.006Z,14.30
2023-03-31T07:52:57.725Z,14.90
2023-03-31T07:55:44.453Z,15.40
2023-03-31T07:58:31.384Z,16.00
2023-03-31T08:01:19.397Z,15.90
2023-03-31T08:04:06.159Z,15.30
2023-03-31T08:06:54.495Z,15.00
2023-03-31T08:09:41.933Z,14.70
2023-03-31T08:12:28.556Z,14.40
2023-03-31T08:15:14.977Z,14.40
2023-03-31T08:18:01.948Z,14.30
2023-03-31T08:20:49.917Z,14.80
2023-03-31T08:23:38.082Z,15.50
2023-03-31T08:26:25.645Z,16.10
2023-03-31T08:29:12.240Z,16.60
2023-03-31T08:31:59.186Z,16.80
2023-03-31T08:34:46.250Z,16.50
2023-03-31T08:37:32.925Z,15.80
2023-03-31T08:40:24.166Z,15.20
2023-03-31T08:43:16.363Z,14.70
2023-03-31T08:46:06.132Z,14.80
2023-03-31T08:48:56.970Z,15.30
2023-03-31T08:51:48.557Z,16.10
2023-03-31T08:54:39.533Z,16.70
2023-03-31T08:57:32.993Z,16.40
2023-03-31T09:00:20.790Z,15.90
2023-03-31T09:03:15.055Z,15.40
2023-03-31T09:06:06.992Z,15.80
2023-03-31T09:08:59.358Z,16.70
2023-03-31T09:11:52.681Z,17.30
2023-03-31T09:14:45.236Z,17.30
2023-03-31T09:17:34.670Z,17.90
2023-03-31T09:20:24.303Z,18.20
2023-03-31T09:23:24.012Z,18.50
2023-03-31T09:26:18.739Z,18.60
2023-03-31T09:29:11.574Z,18.90
2023-03-31T09:32:03.225Z,18.60
2023-03-31T09:34:54.538Z,18.00
2023-03-31T09:37:41.298Z,17.70
2023-03-31T09:40:29.889Z,17.90
2023-03-31T09:43:23.105Z,17.60
2023-03-31T09:46:19.504Z,17.10
2023-03-31T09:49:13.394Z,16.40
2023-03-31T09:52:05.713Z,15.80
2023-03-31T09:54:54.045Z,15.30
2023-03-31T09:57:41.468Z,15.60
2023-03-31T10:00:29.138Z,16.60
2023-03-31T10:03:16.754Z,17.00
2023-03-31T10:06:10.688Z,17.00
2023-03-31T10:09:00.493Z,17.10
2023-03-31T10:11:56.663Z,17.20
2023-03-31T10:14:47.697Z,16.70
2023-03-31T10:17:47.249Z,16.50
2023-03-31T10:20:45.722Z,16.00
2023-03-31T10:23:35.378Z,15.90
2023-03-31T10:26:23.852Z,15.50
2023-03-31T10:29:14.154Z,15.50
2023-03-31T10:32:06.210Z,15.60
2023-03-31T10:34:53.297Z,15.60
2023-03-31T10:37:40.069Z,15.70
2023-03-31T10:40:29.682Z,16.10
2023-03-31T10:43:18.355Z,16.60
2023-03-31T10:46:05.332Z,17.20
2023-03-31T10:48:52.880Z,16.80
2023-03-31T10:51:49.842Z,16.50
2023-03-31T10:54:36.376Z,16.20
2023-03-31T10:57:33.772Z,15.70
2023-03-31T11:00:33.248Z,14.40
2023-03-31T11:03:41.043Z,13.40
2023-03-31T11:06:36.836Z,13.00
2023-03-31T11:09:38.500Z,12.80
2023-03-31T11:12:32.500Z,12.80
2023-03-31T11:15:22.823Z,12.90
2023-03-31T11:18:36.225Z,12.90
2023-03-31T11:21:29.343Z,12.90
2023-03-31T11:24:32.860Z,12.80
2023-03-31T11:27:36.415Z,12.80
2023-03-31T11:30:29.850Z,12.50
2023-03-31T11:33:45.682Z,12.50
2023-03-31T11:36:59.968Z,12.60
2023-03-31T11:39:55.922Z,13.00
2023-03-31T11:42:51.534Z,13.30
2023-03-31T11:45:42.959Z,13.30
2023-03-31T11:48:37.314Z,13.30
2023-03-31T11:51:29.686Z,13.60
2023-03-31T11:54:21.292Z,14.20
2023-03-31T11:57:14.182Z,14.60
2023-03-31T12:00:09.012Z,15.40
2023-03-31T12:03:05.916Z,15.70
2023-03-31T12:05:54.290Z,15.80
2023-03-31T12:08:48.303Z,16.30
2023-03-31T12:11:41.713Z,16.40
2023-03-31T12:14:32.229Z,16.30
2023-03-31T12:17:24.027Z,16.00
2023-03-31T12:20:18.869Z,15.40
2023-03-31T12:23:11.244Z,15.00
2023-03-31T12:26:07.293Z,14.70
2023-03-31T12:28:58.872Z,14.40
2023-03-31T12:31:46.767Z,14.40
2023-03-31T12:34:39.372Z,14.40
2023-03-31T12:37:58.706Z,14.30
2023-03-31T12:40:56.632Z,14.30
2023-03-31T12:44:02.363Z,14.30
2023-03-31T12:47:13.161Z,14.50
2023-03-31T12:50:25.610Z,14.90
2023-03-31T12:53:21.330Z,14.90
2023-03-31T12:56:08.585Z,14.60
2023-03-31T12:58:55.436Z,15.10
2023-03-31T13:02:21.095Z,15.30
2023-03-31T13:05:47.001Z,15.40
2023-03-31T13:08:56.959Z,15.40
2023-03-31T13:11:47.849Z,15.10
2023-03-31T13:14:39.060Z,14.90
2023-03-31T13:17:33.702Z,14.50
2023-03-31T13:20:44.074Z,14.30
2023-03-31T13:23:35.224Z,14.60
2023-03-31T13:26:39.058Z,14.80
2023-03-31T13:29:27.127Z,14.90
2023-03-31T13:32:25.555Z,14.90
2023-03-31T13:35:20.413Z,14.80
2023-03-31T13:38:19.669Z,14.90
2023-03-31T13:41:26.520Z,14.80
2023-03-31T13:44:38.283Z,14.80
2023-03-31T13:47:54.474Z,14.90
2023-03-31T13:50:52.623Z,15.10
2023-03-31T13:53:58.545Z,15.10
2023-03-31T13:57:16.017Z,14.90
2023-03-31T14:00:22.722Z,14.80
2023-03-31T14:03:37.275Z,14.80
2023-03-31T14:06:31.108Z,14.80
2023-03-31T14:09:22.480Z,14.70
2023-03-31T14:12:23.547Z,14.70
2023-03-31T14:15:19.555Z,14.70
2023-03-31T14:18:07.071Z,14.60
2023-03-31T14:21:08.824Z,14.60
2023-03-31T14:24:03.787Z,14.50
2023-03-31T14:27:01.010Z,14.50
2023-03-31T14:29:57.812Z,14.50
2023-03-31T14:32:50.963Z,14.40
2023-03-31T14:35:43.760Z,14.40
2023-03-31T14:38:32.156Z,14.50
2023-03-31T14:41:21.305Z,14.20
2023-03-31T14:44:14.834Z,14.00
2023-03-31T14:47:02.821Z,14.00
2023-03-31T14:49:59.569Z,14.00
2023-03-31T14:52:48.984Z,14.00
2023-03-31T14:58:27.811Z,14.20
2023-03-31T15:01:18.596Z,14.20
2023-03-31T15:04:11.693Z,14.30
2023-03-31T15:07:01.037Z,14.40
2023-03-31T15:09:51.406Z,14.40
2023-03-31T15:12:38.515Z,14.30
2023-03-31T15:15:25.389Z,14.30
2023-03-31T15:18:13.545Z,14.40
2023-03-31T15:21:01.653Z,14.40
2023-03-31T15:23:48.424Z,14.20
2023-03-31T15:26:41.496Z,13.90
2023-03-31T15:29:33.546Z,13.60
2023-03-31T15:32:26.757Z,13.40
2023-03-31T15:35:22.864Z,13.40
2023-03-31T15:38:12.885Z,13.30
2023-03-31T15:41:01.041Z,13.40
2023-03-31T15:43:50.613Z,13.60
2023-03-31T15:46:56.426Z,13.70
2023-03-31T15:49:53.162Z,13.80
2023-03-31T15:52:47.312Z,13.70
2023-03-31T15:59:04.382Z,13.80
2023-03-31T16:01:53.041Z,13.80
2023-03-31T16:04:41.510Z,13.90
2023-03-31T16:07:32.882Z,13.60
2023-03-31T16:10:23.379Z,13.50
2023-03-31T16:13:23.041Z,13.50
2023-03-31T16:16:11.497Z,13.40
2023-03-31T16:19:05.142Z,13.20
2023-03-31T16:21:54.911Z,13.10
2023-03-31T16:24:41.948Z,13.10
2023-03-31T16:27:28.746Z,13.00
2023-03-31T16:30:20.661Z,13.00
2023-03-31T16:33:09.318Z,12.90
2023-03-31T16:35:56.480Z,12.90
2023-03-31T16:38:42.901Z,12.80
2023-03-31T16:41:30.888Z,12.80
2023-03-31T16:44:17.762Z,12.70
2023-03-31T16:47:05.971Z,12.50
2023-03-31T16:49:52.616Z,12.40
2023-03-31T16:52:39.598Z,12.30
2023-03-31T16:55:26.336Z,12.20
2023-03-31T16:58:13.472Z,12.10
2023-03-31T17:01:00.527Z,12.00
2023-03-31T17:03:50.192Z,12.10
2023-03-31T17:06:37.349Z,12.10
2023-03-31T17:09:24.251Z,12.10
2023-03-31T17:12:10.721Z,12.10
2023-03-31T17:14:57.088Z,12.10
2023-03-31T17:17:43.823Z,12.10
2023-03-31T17:20:32.776Z,12.00
2023-03-31T17:23:19.879Z,11.90
2023-03-31T17:26:09.680Z,11.70
2023-03-31T17:28:56.622Z,11.50
2023-03-31T17:31:43.617Z,11.40
2023-03-31T17:34:30.284Z,11.20
2023-03-31T17:37:19.004Z,11.10
2023-03-31T17:40:07.319Z,11.10
2023-03-31T17:42:54.186Z,11.10
2023-03-31T17:45:41.160Z,11.10
2023-03-31T17:48:27.824Z,11.00
2023-03-31T17:51:16.024Z,10.90
2023-03-31T17:54:04.213Z,10.80
2023-03-31T17:56:50.907Z,10.70
2023-03-31T17:59:38.957Z,10.70
2023-03-31T18:02:25.985Z,10.70
2023-03-31T18:05:12.809Z,10.80
2023-03-31T18:07:59.681Z,11.00
2023-03-31T18:10:47.472Z,11.00
2023-03-31T18:13:36.143Z,11.00
2023-03-31T18:16:22.683Z,11.00
2023-03-31T18:19:09.566Z,10.80
2023-03-31T18:21:56.293Z,10.80
2023-03-31T18:24:44.378Z,10.80
2023-03-31T18:27:32.846Z,10.90
2023-03-31T18:30:19.828Z,10.90
2023-03-31T18:33:07.065Z,10.90
2023-03-31T18:35:54.147Z,10.90
2023-03-31T18:38:41.158Z,10.90
2023-03-31T18:41:27.763Z,11.00
2023-03-31T18:44:17.534Z,11.00
2023-03-31T18:47:04.405Z,11.10
2023-03-31T18:49:53.853Z,11.20
2023-03-31T18:52:41.167Z,11.20
2023-03-31T18:55:29.226Z,11.30
2023-03-31T18:58:16.295Z,11.30
2023-03-31T19:01:04.272Z,11.30
2023-03-31T19:03:51.040Z,11.30
2023-03-31T19:06:37.782Z,11.30
2023-03-31T19:09:26.010Z,11.40
2023-03-31T19:12:12.597Z,11.40
2023-03-31T19:14:59.301Z,11.40
2023-03-31T19:17:47.605Z,11.40
2023-03-31T19:20:34.457Z,11.50
2023-03-31T19:23:23.357Z,11.50
2023-03-31T19:26:14.642Z,11.60
2023-03-31T19:29:01.187Z,11.60
2023-03-31T19:31:48.471Z,11.70
2023-03-31T19:34:36.793Z,11.60
2023-03-31T19:37:27.256Z,11.40
2023-03-31T19:40:14.484Z,11.30
2023-03-31T19:43:01.142Z,11.10
2023-03-31T19:45:48.574Z,11.10
2023-03-31T19:48:35.211Z,11.00
2023-03-31T19:51:23.247Z,11.00
2023-03-31T19:54:11.233Z,11.10
2023-03-31T19:56:57.951Z,11.00
2023-03-31T19:59:44.726Z,11.10
2023-03-31T20:02:31.541Z,11.20
2023-03-31T20:05:19.652Z,11.10
2023-03-31T20:08:07.922Z,11.10
2023-03-31T20:10:59.134Z,11.10
2023-03-31T20:13:46.434Z,11.10
2023-03-31T20:16:34.453Z,11.00
2023-03-31T20:19:22.684Z,11.00
2023-03-31T20:22:09.700Z,11.00
2023-03-31T20:24:57.556Z,11.00
2023-03-31T20:27:43.893Z,11.00
2023-03-31T20:30:30.514Z,11.00
2023-03-31T20:33:17.556Z,11.00
2023-03-31T20:36:06.403Z,11.00
2023-03-31T20:38:54.510Z,11.10
2023-03-31T20:41:43.360Z,11.10
2023-03-31T20:44:30.039Z,11.00
2023-03-31T20:47:16.436Z,11.00
2023-03-31T20:50:04.069Z,11.00
2023-03-31T20:52:50.785Z,11.00
2023-03-31T20:55:37.993Z,11.00
2023-03-31T20:58:27.305Z,11.10
2023-03-31T21:01:15.348Z,11.00
2023-03-31T21:04:03.400Z,11.10
2023-03-31T21:06:50.257Z,11.10
2023-03-31T21:09:36.551Z,11.10
2023-03-31T21:12:23.311Z,11.10
2023-03-31T21:15:12.482Z,11.20
2023-03-31T21:17:59.472Z,11.20
2023-03-31T21:20:51.561Z,11.20
2023-03-31T21:23:38.065Z,11.20
2023-03-31T21:26:24.950Z,11.10
2023-03-31T21:29:11.846Z,11.10
2023-03-31T21:32:01.058Z,11.10
2023-03-31T21:34:47.887Z,11.00
2023-03-31T21:37:34.646Z,11.00
2023-03-31T21:40:22.042Z,11.00
2023-03-31T21:43:08.950Z,11.00
2023-03-31T21:45:59.132Z,10.90
2023-03-31T21:48:48.778Z,10.90
2023-03-31T21:51:35.651Z,10.80
2023-03-31T21:54:22.734Z,10.80
2023-03-31T21:57:09.144Z,10.80
2023-03-31T21:59:56.191Z,10.80
2023-03-31T22:02:42.969Z,10.70
2023-03-31T22:05:32.820Z,10.70
2023-03-31T22:08:19.714Z,10.70
2023-03-31T22:11:07.354Z,10.80
2023-03-31T22:13:54.013Z,10.80
2023-03-31T22:16:40.437Z,10.80
2023-03-31T22:19:26.886Z,10.80
2023-03-31T22:22:14.492Z,10.80
2023-03-31T22:25:01.138Z,10.80
2023-03-31T22:27:47.961Z,10.80
2023-03-31T22:30:34.358Z,10.80
2023-03-31T22:33:21.367Z,10.80
2023-03-31T22:36:08.802Z,10.80
2023-03-31T22:38:57.123Z,10.80
2023-03-31T22:41:44.251Z,10.80
2023-03-31T22:44:31.066Z,10.80
2023-03-31T22:47:17.449Z,10.80
2023-03-31T22:50:04.009Z,10.80
2023-03-31T22:52:51.078Z,10.80
2023-03-31T22:55:42.434Z,10.80
2023-03-31T22:58:29.703Z,10.80
2023-03-31T23:01:19.812Z,10.80
2023-03-31T23:04:06.670Z,10.90
2023-03-31T23:06:53.547Z,10.90
2023-03-31T23:09:39.925Z,10.80
2023-03-31T23:12:28.456Z,10.90
2023-03-31T23:15:15.503Z,10.90
2023-03-31T23:18:02.407Z,10.90
2023-03-31T23:20:49.774Z,10.90
2023-03-31T23:23:36.563Z,10.90
2023-03-31T23:26:25.087Z,10.90
2023-03-31T23:29:13.054Z,10.90
2023-03-31T23:31:59.893Z,10.90
2023-03-31T23:34:46.419Z,10.90
2023-03-31T23:37:32.724Z,10.90
2023-03-31T23:40:19.521Z,10.90
2023-03-31T23:43:06.012Z,10.90
2023-03-31T23:45:54.918Z,10.90
2023-03-31T23:48:41.901Z,10.90
2023-03-31T23:51:28.450Z,10.90
2023-03-31T23:54:14.815Z,10.90
2023-03-31T23:57:01.274Z,10.90
2023-03-31T23:59:48.228Z,10.90
